ITY1024 UBBB-UDYZ
Flight info
| Callsign | ITY1024 |
|---|---|
| Flight time | N/A |
| Altitude | 36000 |
| Route | GILAB N449 DEKIT T919 GOSIS |
| Aircraft | A320/M-SDE3FGHIRWY/LB1 |
Departure
| Time | 2026-04-28 17:25 |
|---|---|
| Airport | Heydar Aliyev International Airport (UBBB) |
Arrival
| Time | N/A |
|---|---|
| Airport | Zvartnots International Airport (UDYZ) |
| Time | Latitude | Longitude | Altitude | Speed | Heading |
|---|---|---|---|---|---|
| 2026-04-28 16:56 | 40.46175 | 50.04845 | 9 ft | 0 kts | 57° |
| 2026-04-28 16:58 | 40.46175 | 50.04844 | 9 ft | 0 kts | 57° |
| 2026-04-28 17:04 | 40.46174 | 50.04844 | 9 ft | 0 kts | 57° |
| 2026-04-28 17:08 | 40.46174 | 50.04843 | 9 ft | 0 kts | 57° |
| 2026-04-28 17:16 | 40.46172 | 50.04838 | 10 ft | 2 kts | 56° |
| 2026-04-28 17:16 | 40.46164 | 50.04824 | 10 ft | 2 kts | 58° |
| 2026-04-28 17:16 | 40.46157 | 50.04810 | 12 ft | 2 kts | 57° |
| 2026-04-28 17:16 | 40.46150 | 50.04795 | 10 ft | 2 kts | 59° |
| 2026-04-28 17:17 | 40.46144 | 50.04781 | 11 ft | 2 kts | 65° |
| 2026-04-28 17:17 | 40.46141 | 50.04772 | 11 ft | 1 kts | 81° |
| 2026-04-28 17:17 | 40.46139 | 50.04765 | 10 ft | 1 kts | 104° |
| 2026-04-28 17:17 | 40.46140 | 50.04757 | 10 ft | 1 kts | 136° |
| 2026-04-28 17:18 | 40.46144 | 50.04752 | 11 ft | 1 kts | 143° |
| 2026-04-28 17:18 | 40.46148 | 50.04748 | 9 ft | 1 kts | 146° |
| 2026-04-28 17:18 | 40.46149 | 50.04747 | 9 ft | 0 kts | 146° |
| 2026-04-28 17:20 | 40.46138 | 50.04757 | 10 ft | 4 kts | 147° |
| 2026-04-28 17:20 | 40.46112 | 50.04778 | 9 ft | 8 kts | 148° |
| 2026-04-28 17:20 | 40.46040 | 50.04830 | 9 ft | 9 kts | 173° |
| 2026-04-28 17:20 | 40.45969 | 50.04801 | 9 ft | 11 kts | 205° |
| 2026-04-28 17:21 | 40.45889 | 50.04758 | 9 ft | 14 kts | 200° |
| 2026-04-28 17:21 | 40.45826 | 50.04726 | 9 ft | 16 kts | 201° |
| 2026-04-28 17:21 | 40.45729 | 50.04643 | 10 ft | 18 kts | 237° |
| 2026-04-28 17:22 | 40.45674 | 50.04456 | 9 ft | 13 kts | 250° |
| 2026-04-28 17:22 | 40.45644 | 50.04335 | 9 ft | 14 kts | 253° |
| 2026-04-28 17:22 | 40.45638 | 50.04303 | 10 ft | 3 kts | 257° |
| 2026-04-28 17:23 | 40.45623 | 50.04221 | 9 ft | 0 kts | 257° |
| 2026-04-28 17:23 | 40.45623 | 50.04219 | 9 ft | 1 kts | 257° |
| 2026-04-28 17:23 | 40.45618 | 50.04194 | 9 ft | 5 kts | 258° |
| 2026-04-28 17:23 | 40.45630 | 50.04130 | 10 ft | 10 kts | 318° |
| 2026-04-28 17:24 | 40.45655 | 50.04118 | 9 ft | 0 kts | 344° |
| 2026-04-28 17:24 | 40.45857 | 50.04054 | 10 ft | 67 kts | 346° |
| 2026-04-28 17:24 | 40.46520 | 50.03844 | 7 ft | 125 kts | 346° |
| 2026-04-28 17:24 | 40.47451 | 50.03535 | 426 ft | 139 kts | 346° |
| 2026-04-28 17:25 | 40.48386 | 50.03230 | 1187 ft | 138 kts | 355° |
| 2026-04-28 17:25 | 40.50555 | 50.02672 | 1733 ft | 178 kts | 351° |
| 2026-04-28 17:25 | 40.51683 | 50.02314 | 1849 ft | 155 kts | 349° |
| 2026-04-28 17:26 | 40.52648 | 50.01987 | 1953 ft | 132 kts | 350° |
| 2026-04-28 17:26 | 40.53461 | 50.01713 | 2050 ft | 109 kts | 350° |
| 2026-04-28 17:26 | 40.54188 | 50.01431 | 1791 ft | 115 kts | 347° |
| 2026-04-28 17:26 | 40.55027 | 50.01046 | 2266 ft | 124 kts | 344° |
| 2026-04-28 17:27 | 40.55748 | 50.00646 | 3189 ft | 98 kts | 340° |
| 2026-04-28 17:27 | 40.56467 | 50.00184 | 3353 ft | 138 kts | 337° |
| 2026-04-28 17:27 | 40.57184 | 49.99661 | 4543 ft | 119 kts | 336° |
| 2026-04-28 17:27 | 40.58121 | 49.99070 | 4661 ft | 175 kts | 345° |
| 2026-04-28 17:28 | 40.59343 | 49.98380 | 5037 ft | 209 kts | 338° |
| 2026-04-28 17:28 | 40.61736 | 49.95450 | 5934 ft | 283 kts | 293° |
| 2026-04-28 17:28 | 40.62056 | 49.92695 | 6031 ft | 328 kts | 271° |
| 2026-04-28 17:29 | 40.62016 | 49.89619 | 6875 ft | 337 kts | 269° |
| 2026-04-28 17:29 | 40.61953 | 49.86478 | 7626 ft | 345 kts | 268° |
| 2026-04-28 17:29 | 40.61899 | 49.83444 | 7886 ft | 318 kts | 269° |
| 2026-04-28 17:30 | 40.60902 | 49.78258 | 8005 ft | 283 kts | 231° |
| 2026-04-28 17:30 | 40.57548 | 49.76036 | 7996 ft | 278 kts | 188° |
| 2026-04-28 17:30 | 40.55628 | 49.75702 | 8001 ft | 278 kts | 188° |
| 2026-04-28 17:31 | 40.53709 | 49.75375 | 8001 ft | 278 kts | 188° |
| 2026-04-28 17:31 | 40.49903 | 49.74409 | 8392 ft | 284 kts | 207° |
| 2026-04-28 17:32 | 40.47030 | 49.70903 | 10419 ft | 290 kts | 229° |
| 2026-04-28 17:32 | 40.45689 | 49.68788 | 10760 ft | 314 kts | 230° |
| 2026-04-28 17:32 | 40.44277 | 49.66527 | 11174 ft | 332 kts | 230° |
| 2026-04-28 17:32 | 40.42798 | 49.64149 | 11865 ft | 340 kts | 230° |
| 2026-04-28 17:33 | 40.41295 | 49.61733 | 12795 ft | 341 kts | 230° |
| 2026-04-28 17:33 | 40.39785 | 49.59309 | 13650 ft | 344 kts | 230° |
| 2026-04-28 17:33 | 40.38270 | 49.56883 | 14601 ft | 343 kts | 230° |
| 2026-04-28 17:33 | 40.37263 | 49.55274 | 15088 ft | 347 kts | 229° |
| 2026-04-28 17:34 | 40.35187 | 49.51970 | 15985 ft | 354 kts | 229° |
| 2026-04-28 17:34 | 40.33608 | 49.49466 | 16644 ft | 359 kts | 230° |
| 2026-04-28 17:34 | 40.32014 | 49.46940 | 17429 ft | 361 kts | 230° |
| 2026-04-28 17:34 | 40.30406 | 49.44391 | 18149 ft | 363 kts | 229° |
| 2026-04-28 17:35 | 40.28786 | 49.41823 | 18792 ft | 369 kts | 229° |
| 2026-04-28 17:35 | 40.27139 | 49.39213 | 19382 ft | 373 kts | 230° |
| 2026-04-28 17:35 | 40.25500 | 49.36613 | 20041 ft | 376 kts | 230° |
| 2026-04-28 17:35 | 40.23826 | 49.33964 | 20767 ft | 378 kts | 230° |
| 2026-04-28 17:36 | 40.22147 | 49.31311 | 21494 ft | 380 kts | 230° |
| 2026-04-28 17:36 | 40.20606 | 49.28495 | 22177 ft | 382 kts | 239° |
| 2026-04-28 17:36 | 40.19510 | 49.25313 | 22867 ft | 387 kts | 250° |
| 2026-04-28 17:36 | 40.18914 | 49.21867 | 23548 ft | 392 kts | 260° |
| 2026-04-28 17:37 | 40.18816 | 49.18279 | 24118 ft | 398 kts | 266° |
| 2026-04-28 17:37 | 40.18821 | 49.14647 | 24644 ft | 401 kts | 266° |
| 2026-04-28 17:37 | 40.18821 | 49.10993 | 25190 ft | 404 kts | 266° |
| 2026-04-28 17:37 | 40.18815 | 49.07308 | 25718 ft | 406 kts | 266° |
| 2026-04-28 17:38 | 40.18805 | 49.03598 | 26242 ft | 409 kts | 266° |
| 2026-04-28 17:38 | 40.18791 | 48.99846 | 26756 ft | 413 kts | 265° |
| 2026-04-28 17:38 | 40.18775 | 48.96085 | 27301 ft | 415 kts | 266° |
| 2026-04-28 17:38 | 40.18758 | 48.92302 | 27827 ft | 417 kts | 266° |
| 2026-04-28 17:39 | 40.18739 | 48.88500 | 28339 ft | 419 kts | 266° |
| 2026-04-28 17:39 | 40.18720 | 48.84677 | 28837 ft | 422 kts | 266° |
| 2026-04-28 17:39 | 40.18676 | 48.76996 | 29750 ft | 428 kts | 265° |
| 2026-04-28 17:40 | 40.18647 | 48.73085 | 30115 ft | 433 kts | 265° |
| 2026-04-28 17:40 | 40.18613 | 48.69131 | 30482 ft | 436 kts | 265° |